Strippenstrolch - Suchseite


19.09.2018 --- kopf.html
17.09.2018 --- 2-0-32-lores-geschichte.html
17.09.2018 --- menue-2.html
16.09.2018 --- hauptmenue.html
13.09.2018 --- impressum.html
13.09.2018 --- kontakt.html
13.09.2018 --- fuss.html
16.08.2018 --- kaffeekasse.html
08.08.2018 --- 1-1-4-die-geaetzte-platine.html
08.08.2018 --- 1-1-1-das-loeten.html
08.08.2018 --- 1-1-5-das-laborsteckbrett.html
08.08.2018 --- 1-1-2-die-brettschaltung.html
08.08.2018 --- 1-1-3-die-lochrasterplatine.html
08.08.2018 --- 1-1-10-die-knotenpunkt-regel.html
08.08.2018 --- 1-1-11-die-spannungsarten.html
08.08.2018 --- 1-1-9-strom-messen.html
08.08.2018 --- 1-2-12-der-reflexkoppler-cny70.html
08.08.2018 --- 1-2-1-das-relais.html
08.08.2018 --- 1-2-10-der-schmitt-trigger-cd-4093.html
08.08.2018 --- 1-2-11-der-spannungsregler-78xx.html
08.08.2018 --- 1-1-7-widerstand-messen.html
08.08.2018 --- 1-1-6-das-isolationsfraesen.html
08.08.2018 --- 1-1-8-spannung-messen.html
08.08.2018 --- 1-2-15-der-ldr.html
08.08.2018 --- 1-2-13-die-zenerdiode.html
08.08.2018 --- 1-2-19-motortreiber-l6203-erkunden.html
08.08.2018 --- 1-2-20-der-reed-kontakt.html
08.08.2018 --- 1-2-17-reflexsensor-mrl-601-erkunden.html
08.08.2018 --- 1-2-2-der-npn-transistor.html
08.08.2018 --- 1-2-18-schrittmotortreiber-l6208n-erkunden.html
08.08.2018 --- 1-2-14-uln-2803-a-erkunden.html
08.08.2018 --- 1-2-16-die-7-segment-anzeige.html
08.08.2018 --- 1-2-3-die-diode.html
08.08.2018 --- 1-2-4-die-leuchtdiode.html
08.08.2018 --- 1-2-5-das-potentiometer.html
08.08.2018 --- 1-2-22-gabellichtschranke-erkunden.html
08.08.2018 --- 1-2-3-a-die-z-diode.html
08.08.2018 --- 1-2-6-der-kondensator.html
08.08.2018 --- 1-2-21-temperatursensor-smt-160-30-erkunden.html
08.08.2018 --- 1-2-9-motortreiber-298.html
08.08.2018 --- 1-2-bauteile.html
08.08.2018 --- 1-2-7-schrittmotor-mit-6-anschluessen.html
08.08.2018 --- 1-2-8-schrittmotor-mit-4-anschluessen.html
08.08.2018 --- 1-3-12-nicht-verknuepfung.html
08.08.2018 --- 1-3-10-und-verknuepfung.html
08.08.2018 --- 1-3-1-elektrischer-strom.html
08.08.2018 --- 1-3-11-oder-verknuepfung.html
08.08.2018 --- 1-3-18-pullup-und-pulldown-widerstand.html
08.08.2018 --- 1-3-3-elektrischer-widerstand.html
08.08.2018 --- 1-3-16-opv-als-nicht-invertierender-verstaerker.html
08.08.2018 --- 1-3-14-zaehlpeile.html
08.08.2018 --- 1-3-13-pwm-pulsweitenmodulation.html
08.08.2018 --- 1-3-15-kennlinien-von-leds-aufnehmen.html
08.08.2018 --- 1-3-4-brandgefahr.html
08.08.2018 --- 1-3-5-elektrolyse.html
08.08.2018 --- 1-3-2-elektrische-spannung.html
08.08.2018 --- 1-3-17-opv-als-PWM-Generator.html
08.08.2018 --- 1-4-12-drehzahlsteller-per-pwm.html
08.08.2018 --- 1-3-7-elektrochemische-spannungsreihe.html
08.08.2018 --- 1-4-10-akku.mit-c-control-messen.html
08.08.2018 --- 1-4-11-step-up-wandler.html
08.08.2018 --- 1-3-8-kondensatoren-parallel.html
08.08.2018 --- 1-3-9-widerstaende-parallel.html
08.08.2018 --- 1-3-6-elektromagnet.html
08.08.2018 --- 1-4-1-verhalten-eines-kondensators.html
08.08.2018 --- 1-4-6-polwender-1.html
08.08.2018 --- 1-4-4-relaisverzoegerung.html
08.08.2018 --- 1-4-5-selbsthaltung.html
08.08.2018 --- 1-4-13-digitale-signalweiche.html
08.08.2018 --- 1-4-7-polwender-2.html
08.08.2018 --- 1-4-3-led-fade-out.html
08.08.2018 --- 1-4-2-led-wechseldimmer.html
08.08.2018 --- 1-4-14-polwender-mit-fernbedienung.html
08.08.2018 --- 1-4-8-polwender-3.html
08.08.2018 --- 1-5-8-led-vorwiderstand-rechner.html
08.08.2018 --- 1-5-7-das-ablaufdiagramm.html
08.08.2018 --- 1-5-2-der-rechte-winkel.html
08.08.2018 --- 1-5-5-das-pico-herz.html
08.08.2018 --- 1-5-1-kabellaenge.html
08.08.2018 --- 1-4-9-hochspannungsschnarre.html
08.08.2018 --- 1-5-3-die-verhaeltnisrechnng.html
08.08.2018 --- 1-5-4-der-preis.html
08.08.2018 --- 1-5-6-das-ohmsche-gesetz.html
08.08.2018 --- 1-5-formeln.html
08.08.2018 --- 1-6-2-schaltschwelle-fuer-ein-relais.html
08.08.2018 --- 1-6-14-akkuspannungsueberwachung.html
08.08.2018 --- 1-6-5-simpel-lader-6-volt.html
08.08.2018 --- 1-6-6-pufferung-eines-akkus.html
08.08.2018 --- 1-6-10-led-nachlaufsteuerung.html
08.08.2018 --- 1-6-1-leds-parallel.html
08.08.2018 --- 1-6-13-folgeschaltung-mit-dec-zaehler.html
08.08.2018 --- 1-6-11-lueftungsklappensteuerung.html
08.08.2018 --- 1-6-12-hausnummer-aufruesten.html
08.08.2018 --- 11-13-strippenstrolch-historie.html
08.08.2018 --- 11-12-strippenstrolch-historie.html
08.08.2018 --- 11-11-strippenstrolch-historie.html
08.08.2018 --- 1-6-7-blitzer-mit-fahrradlaempchen.html
08.08.2018 --- 11-10-strippenstrolch-historie.html
08.08.2018 --- 11-14-strippenstrolch-historie.html
08.08.2018 --- 1-6-8-relais-mit-kleinem-strom-ansteuern.html
08.08.2018 --- 11-1-strippenstrolch-historie.html
08.08.2018 --- 1-6-9-pwm-mit-buz.html
08.08.2018 --- 11-5-strippenstrolch-historie.html
08.08.2018 --- 11-15-mischnick-blog-historie.html
08.08.2018 --- 11-8-strippenstrolch-historie.html
08.08.2018 --- 11-4-strippenstrolch-historie.html
08.08.2018 --- 11-3-strippenstrolch-historie.html
08.08.2018 --- 11-9-strippenstrolch-historie.html
08.08.2018 --- 11-2-strippenstrolch-historie.html
08.08.2018 --- 11-6-strippenstrolch-historie.html
08.08.2018 --- 11-7-strippenstrolch-historie.html
08.08.2018 --- 12-1-6-LCD-am-mikrocontroller.html
08.08.2018 --- 12-1-3-bemas-experimentiersystem.html
08.08.2018 --- 12-1-1-polwender-fuer-aussenborder.html
08.08.2018 --- 12-1-1-florians-fraesplotter.html
08.08.2018 --- 12-1-4-karlssons-leuchtturm.html
08.08.2018 --- 12-2-1-karlssons-selbstbaukompressor.html
08.08.2018 --- 12-1-5-karlssons-windspiel.html
08.08.2018 --- 12-1-2-manfreds-huehnerklappe.html
08.08.2018 --- 2-0-1-ich-will-auch-basteln.html
08.08.2018 --- 2-0-10-a-die-kleine-diode.html
08.08.2018 --- 12-2-3-karlssons-windspiel.html
08.08.2018 --- 2-0-11-das-trilement.html
08.08.2018 --- 12-2-2-fabians-center-lautsprecher.html
08.08.2018 --- 2-0-11-das-trilement-release-1-0.html
08.08.2018 --- 2-0-12-der-weinberg.html
08.08.2018 --- 2-0-13-optimierungsgrenzen.html
08.08.2018 --- 2-0-15-die-kunst-der-generationen.html
08.08.2018 --- 2-0-14-wo-sind-nur-die-jungfrauen.html
08.08.2018 --- 2-0-17-der-neuner.html
08.08.2018 --- 2-0-18-die-sache-mit-den-radmotoren.html
08.08.2018 --- 2-0-16-das-g-des-teams.html
08.08.2018 --- 2-0-21-das-festzelt.html
08.08.2018 --- 2-0-2-das-gelbe-vom-ei.html
08.08.2018 --- 2-0-24-ueber-die-freiheit-der-meinung.html
08.08.2018 --- 2-0-22-strolchsche-beduerfnispyramide.html
08.08.2018 --- 2-0-19-ueber-die-transparenz.html
08.08.2018 --- 2-0-23-goethe-hat-unrecht.html
08.08.2018 --- 2-0-28-strolchsches-diskontinuum.html
08.08.2018 --- 2-0-26-die-kulturschocks-der-menschheit.html
08.08.2018 --- 2-0-3-wir-regeln-das-schon.html
08.08.2018 --- 2-0-25-das-essay-der-zahlen.html
08.08.2018 --- 2-0-29-nichts-ist-wirklich-weg.html
08.08.2018 --- 2-0-31-die-gedanken-sind-frei.html
08.08.2018 --- 2-0-30-das-ruettel-maerchen.html
08.08.2018 --- 2-0-27-hymne-an-den-energieerhaltungssatz.html
08.08.2018 --- 2-0-8-die-zeit-ist-gebeugt.html
08.08.2018 --- 2-0-4-nicht-bis-an-die-grenze.html
08.08.2018 --- 2-0-5-schnipp-der-integrator.html
08.08.2018 --- 2-0-9-substitution.html
08.08.2018 --- 2-0-9-substitution-alt-2010.html
08.08.2018 --- 2-0-6-system.html
08.08.2018 --- 2-0-7-regelkreis-am-arbeitsplatz.html
08.08.2018 --- 2-4-jahreshauptversammlung-2018.html
08.08.2018 --- 2-4-jubilaeum-25-jahre-jugendfeuerwehr.html
08.08.2018 --- 3-0-1-ausschaltung.html
08.08.2018 --- 3-0-3-anschluss-eines-netztrafos.html
08.08.2018 --- 2-2-ein-blick-in-das-tsf.html
08.08.2018 --- 2-5-gedenkstaette-waldbrand-1975.html
08.08.2018 --- 2-3-uebungsaktivitaeten.html
08.08.2018 --- 3-0-2-wechselschaltung.html
08.08.2018 --- 2-1-fahrzeuge-2017.html
08.08.2018 --- 3-0-8-fi-prinzip.html
08.08.2018 --- 3-1-2-steckdosenbrett.html
08.08.2018 --- 3-0-4-wendeschuetzschaltung.html
08.08.2018 --- 3-0-7-kreuzschaltung.html
08.08.2018 --- 3-1-1-kabelmuffe.html
08.08.2018 --- 3-0-5-serienschaltung.html
08.08.2018 --- 3-1-10-sehr-einfacher-daemmerungsschalter.html
08.08.2018 --- 3-0-6-stromstossschaltung.html
08.08.2018 --- 3-1-5-durchgangspiepser.html
08.08.2018 --- 3-1-8-zwei-melder-auf-zwei-phasen.html
08.08.2018 --- 3-1-3-mit-dioden-schalten.html
08.08.2018 --- 3-1-9-drehstrom-zu-wechselstrom.html
08.08.2018 --- 3-1-6-discolicht-mit-startern.html
08.08.2018 --- 4-0-1-fraesplotter.html
08.08.2018 --- 3-1-7-weisse-leds-direkt-an-230-volt.html
08.08.2018 --- 3-1-4-zeituhr.html
08.08.2018 --- 4-0-10-rs232-i2c-umsetzer-erkunden.html
08.08.2018 --- 4-0-14-kuemmerling-uhr-bauen.html
08.08.2018 --- 4-0-11-ultraschallkapseln-erkunden.html
08.08.2018 --- 4-0-2-robbi-01.html
08.08.2018 --- 4-0-15-kugel-auf-einer-wippe-balancieren.html
08.08.2018 --- 4-0-12-bau-einer-murmelbahn.html
08.08.2018 --- 4-0-5-d-rasterplatinen-schrittmotortreiber.html
08.08.2018 --- 4-0-3-robbi-02.html
08.08.2018 --- 4-0-5-schrittmotortreiber-erkunden.html
08.08.2018 --- 4-0-4-sirene.html
08.08.2018 --- 4-0-5-c-schrittmotortreiber-mit-chopper-und-picaxe.html
08.08.2018 --- 4-0-5-b-schrittmotortreiber-mit-chopper.html
08.08.2018 --- 4-0-5-a-schrittmotortreiber-und-pc.html
08.08.2018 --- 4-0-6-2-c-fraesplotter-4-von-quadraten-und-stiften.html
08.08.2018 --- 4-0-6-1-c-der-fraesplotter-3-wird verschenkt.html
08.08.2018 --- 4-0-6-1-a-fraesplotter-3.html
08.08.2018 --- 4-0-6-a-handverfahreinheit.html
08.08.2018 --- 4-0-6-2-a-fraesplotter-4.html
08.08.2018 --- 4-0-6-1-b-der-antrieb-mittels-linux-cnc.html
08.08.2018 --- 4-0-6-2-b-fraesplotter-4-kabelbaeume-und-rangierplatinen.html
08.08.2018 --- 4-0-6-d-linearvorschub-mit-gewindestange.html
08.08.2018 --- 4-0-6-c-x-y-z-und-die-4-Schnittstellen.html
08.08.2018 --- 4-0-6-x-y-z-maschine.html
08.08.2018 --- 4-0-6-b-x-y-z-programme.html
08.08.2018 --- 4-0-7-peltierelemente-erkunden.html
08.08.2018 --- 4-0-8-der-alte-dell.html
08.08.2018 --- 4-1-1-a-solar-regenwasser-wc-erweiterung.html
08.08.2018 --- 4-1-1-b-fuellstandssensor-entwerfen.html
08.08.2018 --- 4-0-8-steilgewindespindel-erkunden.html
08.08.2018 --- 4-0-9-das-rentier-mit-der-roten-nase.html
08.08.2018 --- 4-1-1-solar-regenwasser-wc.html
08.08.2018 --- 4-1-12-baucontainer-entfeuchten.html
08.08.2018 --- 4-1-10-digitalmikroskop-erkunden.html
08.08.2018 --- 4-1-2-sickerschacht.html
08.08.2018 --- 4-1-3-frischhalteschaltung.html
08.08.2018 --- 4-1-11-1-projekt-parzelle.html
08.08.2018 --- 4-1-1-c-fuellstandssensor-entflattern.html
08.08.2018 --- 4-1-4-gartenlampe-aus-altem-fass.html
08.08.2018 --- 4-1-8-altes-telefonkabel-zu-lan.html
08.08.2018 --- 4-1-6-b-autarke-energie-verteilen.html
08.08.2018 --- 4-1-5-fahrt-mit-city-el.html
08.08.2018 --- 4-1-6-zweites-autark-projekt.html
08.08.2018 --- 4-1-7-autarke-waeschelueftung.html
08.08.2018 --- 4-1-6-a-zweites-autark-projekt.html
08.08.2018 --- 4-2-13-avr-entwicklungsboard.html
08.08.2018 --- 4-2-14-platinengestaltung-fuer-bastler.html
08.08.2018 --- 4-1-9-alten-bauwagen-neu-nutzen.html
08.08.2018 --- 4-2-1-infrarot-pulser.html
08.08.2018 --- 4-2-10-mausfernsteuerung.html
08.08.2018 --- 4-2-12-drezahlanzeige.html
08.08.2018 --- 4-2-15-musikerpedal.html
08.08.2018 --- 4-2-11-temperaturfuehler.html
08.08.2018 --- 4-3-1-jubilaeum-25-jahre-jugendfeuerwehr.html
08.08.2018 --- 4-2-4-audiovisuelle-geraete-erstellen.html
08.08.2018 --- 4-2-9-niedervoltsteuerung.html
08.08.2018 --- 4-2-6-laboranalysepumpen-steuern.html
08.08.2018 --- 4-2-8-motorradplatine.html
08.08.2018 --- 4-2-7-bewaesserungssteuerung.html
08.08.2018 --- 4-2-5-brettschaltungen-fuer-gehoerlose-kinder.html
08.08.2018 --- 4-2-2-motorfernsteuerung.html
08.08.2018 --- 4-2-16-open-schild.html
08.08.2018 --- 4-2-3-kartoffellueftung-aufruesten.html
08.08.2018 --- 4-4-1-gedenkstaette-waldbrand-1975.html
08.08.2018 --- 5-0-0-a-standardfehler-vermeiden.html
08.08.2018 --- 5-0-2-flip-flop-mit-lernboard.html
08.08.2018 --- 5-0-1-die-und-verknuepfung.html
08.08.2018 --- 5-0-0-das-picaxe-lernboard.html
08.08.2018 --- 5-0-4-analogwerte-mit-lernboard.html
08.08.2018 --- 5-0-5-bargraph-anzeige-mit-lernboard.html
08.08.2018 --- 404.html
08.08.2018 --- 5-0-3-monoflop-mit-lernboard.html
08.08.2018 --- 5-1-12-b-picaxe-gibt-ein-byte-aus.html
08.08.2018 --- 5-1-12-board-fuer-experimente.html
08.08.2018 --- 5-0-6-relais-an-picaxe-anklemmen.html
08.08.2018 --- 5-1-10-waschmaschinenfloete.html
08.08.2018 --- 5-1-12-a-picaxe-m-20-pinout.html
08.08.2018 --- 5-1-11-schwellwertschalter-mit-hysterese.html
08.08.2018 --- 5-1-0-picaxe-befehlsreferenz.html
08.08.2018 --- 5-1-1-welche-picaxe-gibt-es.html
08.08.2018 --- 5-1-4-grundschaltungen-der-anderen-picaxes.html
08.08.2018 --- 5-1-14-ds18s20-auch-ds18b20-erkunden.html
08.08.2018 --- 5-1-2-meine-erste-picaxe.html
08.08.2018 --- 5-1-12-d-axe033-display-erkunden.html
08.08.2018 --- 5-1-15-picaxe-lochraster-lernboard.html
08.08.2018 --- 5-1-3-grundschaltung-08-m.html
08.08.2018 --- 5-1-13-embedded-system-erkunden.html
08.08.2018 --- 5-1-5-y-t-schreiber.html
08.08.2018 --- 5-1-12-c-tlc-549-erkunden.html
08.08.2018 --- 5-1-6-weichblinker.html
08.08.2018 --- 5-2-2-interpreter-compiler.html
08.08.2018 --- 5-1-8-drehzahlschalter.html
08.08.2018 --- 5-2-1-wie-ist-das-board-aufgebaut.html
08.08.2018 --- 5-2-1-profan-links.html
08.08.2018 --- 5-1-9-der-dreh-mit-usb.html
08.08.2018 --- 5-2-2-die-grundbeschaltung-des-picaxe-boards.html
08.08.2018 --- 5-1-7-grosse-widerstaende-am-adc.html
08.08.2018 --- 5-2-9-y-t-schreiber-mit-lpt-und-tlc-549.html
08.08.2018 --- 5-2-4-lpt-mit-profan-ansteuern-2.html
08.08.2018 --- 5-2-8-drehender-quader.html
08.08.2018 --- 5-2-6-rs-232-Profan-scope-mit-picaxe-08-m.html
08.08.2018 --- 5-2-3-lpt-mit-profan-ansteuern.html
08.08.2018 --- 5-2-7-scope-mit-profan-linux-picaxe.html
08.08.2018 --- 5-2-5-urgestein-mit-profan-4-5-wieder-nutzbar-machen.html
08.08.2018 --- 5-3-5-RS232-zu-i2c-umsetzer-mit-purebasic.html
08.08.2018 --- 5-4-1-open-office-draw-als-schaltplanzeichner.html
08.08.2018 --- 5-3-2-232-pins-an-usb-schalten.html
08.08.2018 --- 5-3-5-usb-zu-232-umsetzter-an-ubuntu.html
08.08.2018 --- 5-4-1-c-control-station-erkunden.html
08.08.2018 --- 5-3-1-druckerport-mit-purebasic-steuern.html
08.08.2018 --- 5-3-3-232-parallel-interface-a.html
08.08.2018 --- 5-3-4-232-parallelkarte-an-ubuntu.html
08.08.2018 --- 5-6-2-relais-an-der-rs232-ansteuern-gambas.html
08.08.2018 --- 5-5-2-RS232-zu-i2c-umsetzer-mit-gambas.html
08.08.2018 --- 5-6-3-motorbruecke-L298-an-der-rs232-ansteuern-gambas.html
08.08.2018 --- 5-6-1-leds-an-der-rs232-ansteuern-gambas.html
08.08.2018 --- 5-6-4-schrittmotor-mit-L298-an-der-rs232-ansteuern-gambas.html
08.08.2018 --- 5-5-1-rs-232-strolch-scope-mit-picaxe-08-m.html
08.08.2018 --- 5-4-aktuelle-wetterentwicklung.html
08.08.2018 --- 5-4-2-pwm-und-schrittmotor-mit-c-control.html
08.08.2018 --- 6-0-links.html
08.08.2018 --- 6-2-elektronik-bastelseiten.html
08.08.2018 --- 7-0-4-schaltplaene-und-layouts.html